Airfield :
LOGIN :

Register | Disclaimer

   EN    FR    IT 

 










Legend :    VFR   Marginal VFR   IFR   Intensive IFR   Very Intensive IFR
Visi :
Ceiling :
>= 8 km
>= 3000ft
5 to 8 km
1000 to 3000 ft
1500m to 5 km
500 to 1000 ft
800 to 1500m
200 to 500 ft
< 800m
< 200 ft
Symbols :   Thunderstorms  Fog  Heavy snow  Heavy precipitations  Wind > 20 kt
SIGMETs :     Misc.  Thunderstorms  Icing  Turbulence  Mountain Waves  Volcanic Ashes






- Airport Elevation : 490 ft
- IATA code : BJF


ENBS - Båtsfjord

CURRENT METAR :
  • 211020Z 24004KT 190V270 9999 FEW048 24/15 Q1015

EXPIRED METARs :
  • 210950Z AUTO VRB03KT 9999 NCD 23/15 Q1016
  • 210920Z AUTO VRB02KT 9999 FEW190/// 23/15 Q1016
  • 210850Z AUTO VRB02KT 9999 FEW190/// 20/16 Q1016
  • 210820Z AUTO VRB03KT 9999 NCD 19/16 Q1016
  • 210750Z AUTO VRB02KT 9999 NCD 20/16 Q1016
  • 210720Z AUTO 22005KT 170V270 9999 NCD 21/16 Q1016
  • 210650Z AUTO 19007KT 160V220 9999 NCD 22/16 Q1016
  • 210620Z AUTO 19009KT 9999 NCD 21/16 Q1016
  • 210550Z AUTO 22010KT 9999 NCD 21/16 Q1016
  • 210520Z AUTO VRB02KT 9999 SCT180/// 20/16 Q1016

Expired Forecast.



MET'MAP, your aeronautical weather chart ! - Copyright ORBIFLY December 2007 - Disclaimer

ORBIFLY MET'MAP TEAM :

Programming & Development : Alexandra Zaïnal
Original concept : Baudouin d'Aumeries
Technical & hardware support : Manuel Goepfert
Assistance : Marc-Olivier Méhu




SOURCES & CREDITS :

   NOAA